Time;durP1;ratioP1;P1;durP2;ratioP2;P2;SDS_P1;SDS_P2;PMS_P1;PMS_P2;Temp;Humidity;BMP_temperature;BMP_pressure;BME280_temperature;BME280_humidity;BME280_pressure;Samples;Min_cycle;Max_cycle;Signal;HPM_P1;HPM_P2
2021/03/01 00:01:29;;;;;;;13.63;8.20;;;;;;;;;;5057083;28;20228;-64
2021/03/01 00:03:54;;;;;;;11.53;7.63;;;;;;;;;;5056318;28;20313;-64
2021/03/01 00:06:19;;;;;;;10.87;7.30;;;;;;;;;;5055465;28;20220;-64
2021/03/01 00:08:44;;;;;;;14.50;8.83;;;;;;;;;;5056760;28;20293;-64
2021/03/01 00:11:10;;;;;;;11.70;8.90;;;;;;;;;;5056298;28;20686;-64
2021/03/01 00:13:35;;;;;;;11.07;8.13;;;;;;;;;;5056461;28;20308;-64
2021/03/01 00:16:00;;;;;;;11.03;7.30;;;;;;;;;;5056041;28;20221;-64
2021/03/01 00:18:25;;;;;;;11.00;8.03;;;;;;;;;;5056354;28;20221;-63
2021/03/01 00:20:51;;;;;;;10.93;7.00;;;;;;;;;;5054554;28;20213;-64
2021/03/01 00:23:16;;;;;;;9.60;7.70;;;;;;;;;;5056121;28;20705;-64
2021/03/01 00:25:41;;;;;;;10.10;8.90;;;;;;;;;;5056336;28;20228;-63
2021/03/01 00:28:09;;;;;;;9.40;7.67;;;;;;;;;;5055937;28;20214;-64
2021/03/01 00:30:35;;;;;;;9.90;7.57;;;;;;;;;;5056128;28;20210;-65
2021/03/01 00:33:00;;;;;;;12.77;7.63;;;;;;;;;;5055863;28;20452;-64
2021/03/01 00:35:25;;;;;;;11.53;8.67;;;;;;;;;;5055963;28;20209;-62
2021/03/01 00:37:51;;;;;;;12.37;8.27;;;;;;;;;;5056116;28;20247;-64
2021/03/01 00:40:17;;;;;;;13.80;7.67;;;;;;;;;;5055910;28;20585;-65
2021/03/01 00:42:42;;;;;;;12.37;8.30;;;;;;;;;;5055810;28;20220;-64
2021/03/01 00:45:08;;;;;;;12.87;9.27;;;;;;;;;;5054583;28;20524;-64
2021/03/01 00:47:33;;;;;;;12.80;8.07;;;;;;;;;;5055763;28;20690;-65
2021/03/01 00:49:58;;;;;;;12.47;8.07;;;;;;;;;;5055392;28;20669;-64
2021/03/01 00:52:25;;;;;;;9.33;7.43;;;;;;;;;;5055635;28;20214;-64
2021/03/01 00:54:50;;;;;;;11.10;7.70;;;;;;;;;;5055996;28;20210;-64
2021/03/01 00:57:15;;;;;;;13.33;8.77;;;;;;;;;;5054552;28;20513;-64
2021/03/01 00:59:40;;;;;;;11.77;9.13;;;;;;;;;;5056315;28;20275;-63
2021/03/01 01:02:06;;;;;;;13.17;8.37;;;;;;;;;;5055006;28;20304;-63
2021/03/01 01:04:31;;;;;;;12.80;9.27;;;;;;;;;;5055851;28;20214;-64
2021/03/01 01:06:56;;;;;;;12.07;8.93;;;;;;;;;;5054204;28;20213;-64
2021/03/01 01:09:21;;;;;;;10.80;8.00;;;;;;;;;;5055625;28;20298;-64
2021/03/01 01:11:47;;;;;;;11.50;8.47;;;;;;;;;;5055702;28;20213;-64
2021/03/01 01:14:12;;;;;;;11.50;8.93;;;;;;;;;;5055251;28;20312;-64
2021/03/01 01:16:38;;;;;;;12.67;8.50;;;;;;;;;;5056016;28;20658;-63
2021/03/01 01:19:05;;;;;;;14.13;9.67;;;;;;;;;;5055454;28;20233;-63
2021/03/01 01:21:30;;;;;;;15.50;9.73;;;;;;;;;;5055793;28;20214;-64
2021/03/01 01:23:56;;;;;;;13.23;9.20;;;;;;;;;;5055536;28;20574;-64
2021/03/01 01:26:21;;;;;;;12.63;9.53;;;;;;;;;;5055667;28;20217;-63
2021/03/01 01:28:46;;;;;;;14.03;9.03;;;;;;;;;;5055451;28;20213;-63
2021/03/01 01:31:12;;;;;;;14.33;8.47;;;;;;;;;;5055391;28;20308;-64
2021/03/01 01:33:37;;;;;;;14.37;9.97;;;;;;;;;;5056483;28;20311;-64
2021/03/01 01:36:02;;;;;;;11.37;8.83;;;;;;;;;;5055753;28;20296;-64
2021/03/01 01:38:28;;;;;;;16.00;9.83;;;;;;;;;;5055323;28;20225;-63
2021/03/01 01:40:53;;;;;;;13.70;10.40;;;;;;;;;;5055351;28;20222;-64
2021/03/01 01:43:18;;;;;;;12.93;9.33;;;;;;;;;;5055163;28;20205;-64
2021/03/01 01:45:43;;;;;;;16.90;10.67;;;;;;;;;;5055628;28;20292;-63
2021/03/01 01:48:09;;;;;;;13.20;10.00;;;;;;;;;;5055430;28;20217;-64
2021/03/01 01:50:34;;;;;;;11.10;8.13;;;;;;;;;;5055296;28;20684;-63
2021/03/01 01:53:00;;;;;;;13.13;9.87;;;;;;;;;;5054187;28;20213;-64
2021/03/01 01:55:26;;;;;;;12.43;9.57;;;;;;;;;;5054090;28;20220;-64
2021/03/01 01:57:51;;;;;;;11.27;8.23;;;;;;;;;;5054980;28;20243;-64
2021/03/01 02:03:25;;;;;;;13.90;8.83;;;;;;;;;;5054905;28;20223;-64
2021/03/01 02:05:51;;;;;;;13.70;9.47;;;;;;;;;;5054181;28;20522;-65
2021/03/01 02:08:27;;;;;;;15.53;11.30;;;;;;;;;;5054737;28;20832;-64
2021/03/01 02:10:56;;;;;;;13.30;10.60;;;;;;;;;;5054526;28;20557;-64
2021/03/01 02:13:44;;;;;;;13.77;10.77;;;;;;;;;;5041675;28;20951;-64
2021/03/01 02:16:16;;;;;;;15.50;11.33;;;;;;;;;;5033617;28;20828;-64
2021/03/01 02:18:41;;;;;;;14.07;9.67;;;;;;;;;;5034435;28;20504;-63
2021/03/01 02:21:07;;;;;;;15.07;9.67;;;;;;;;;;5034647;28;20933;-63
2021/03/01 02:23:32;;;;;;;15.33;10.83;;;;;;;;;;5034770;28;20289;-62
2021/03/01 02:26:15;;;;;;;18.57;13.23;;;;;;;;;;5034829;28;20460;-63
2021/03/01 02:28:47;;;;;;;17.57;12.50;;;;;;;;;;5034135;28;20212;-64
2021/03/01 02:31:13;;;;;;;17.90;12.57;;;;;;;;;;5033573;28;20956;-64
2021/03/01 02:33:42;;;;;;;17.23;11.07;;;;;;;;;;5034998;28;20463;-63
2021/03/01 02:36:15;;;;;;;15.07;10.67;;;;;;;;;;5033656;28;20467;-63
2021/03/01 02:38:40;;;;;;;15.50;9.80;;;;;;;;;;5033825;28;20487;-63
2021/03/01 02:41:06;;;;;;;17.57;12.10;;;;;;;;;;5034232;28;20461;-63
2021/03/01 02:43:32;;;;;;;15.10;11.07;;;;;;;;;;5034736;28;20214;-63
2021/03/01 02:45:57;;;;;;;12.63;10.00;;;;;;;;;;5033608;28;20665;-63
2021/03/01 02:48:23;;;;;;;17.43;9.70;;;;;;;;;;5034184;28;20217;-63
2021/03/01 02:50:49;;;;;;;15.13;10.30;;;;;;;;;;5034193;28;20284;-63
2021/03/01 02:53:15;;;;;;;10.70;9.50;;;;;;;;;;5032751;28;20936;-63
2021/03/01 02:55:46;;;;;;;16.53;9.80;;;;;;;;;;5033147;28;20213;-64
2021/03/01 02:58:12;;;;;;;15.43;9.30;;;;;;;;;;5033747;28;20450;-63
2021/03/01 03:00:38;;;;;;;14.47;10.27;;;;;;;;;;5033001;28;20461;-63
2021/03/01 03:03:05;;;;;;;13.40;9.53;;;;;;;;;;5032758;28;20532;-63
2021/03/01 03:05:30;;;;;;;15.20;9.03;;;;;;;;;;5032943;28;20453;-63
2021/03/01 03:07:56;;;;;;;13.00;9.90;;;;;;;;;;5035637;28;20459;-63
2021/03/01 03:10:21;;;;;;;14.40;9.73;;;;;;;;;;5035907;28;20291;-64
2021/03/01 03:12:47;;;;;;;16.43;9.93;;;;;;;;;;5037441;28;20234;-63
2021/03/01 03:15:19;;;;;;;11.40;9.07;;;;;;;;;;5035881;28;20694;-63
2021/03/01 03:17:45;;;;;;;13.10;9.60;;;;;;;;;;5037388;28;20473;-63
2021/03/01 03:20:11;;;;;;;13.87;9.10;;;;;;;;;;5035779;28;20462;-64
2021/03/01 03:22:36;;;;;;;12.33;9.27;;;;;;;;;;5037293;28;20235;-64
2021/03/01 03:25:05;;;;;;;16.03;8.80;;;;;;;;;;5036686;28;20297;-63
2021/03/01 03:27:30;;;;;;;12.23;9.43;;;;;;;;;;5036936;28;20214;-63
2021/03/01 03:29:56;;;;;;;12.80;10.10;;;;;;;;;;5037147;28;20935;-63
2021/03/01 03:32:21;;;;;;;12.97;9.63;;;;;;;;;;5036718;28;20294;-64
2021/03/01 03:34:46;;;;;;;11.17;9.10;;;;;;;;;;5037077;28;20233;-64
2021/03/01 03:37:15;;;;;;;11.07;9.50;;;;;;;;;;5036777;28;20257;-63
2021/03/01 03:39:46;;;;;;;15.07;9.43;;;;;;;;;;5037343;28;20231;-64
2021/03/01 03:42:15;;;;;;;13.67;10.03;;;;;;;;;;5035964;28;20474;-64
2021/03/01 03:44:42;;;;;;;15.67;10.50;;;;;;;;;;5036396;28;20760;-64
2021/03/01 03:47:07;;;;;;;16.17;10.83;;;;;;;;;;5036689;28;20799;-63
2021/03/01 03:49:35;;;;;;;13.00;9.70;;;;;;;;;;5037169;28;20466;-63
2021/03/01 03:52:00;;;;;;;15.60;9.97;;;;;;;;;;5035996;28;20310;-64
2021/03/01 03:54:28;;;;;;;13.17;8.97;;;;;;;;;;5035475;28;20545;-63
2021/03/01 03:56:56;;;;;;;11.53;9.50;;;;;;;;;;5036006;28;20216;-64
2021/03/01 03:59:24;;;;;;;15.50;10.43;;;;;;;;;;5036031;28;20465;-63
2021/03/01 04:01:51;;;;;;;13.40;9.90;;;;;;;;;;5035422;28;20466;-64
2021/03/01 04:04:18;;;;;;;15.00;10.03;;;;;;;;;;5035237;28;20458;-64
2021/03/01 04:06:44;;;;;;;15.47;11.07;;;;;;;;;;5036518;28;21120;-64
2021/03/01 04:09:12;;;;;;;15.37;10.43;;;;;;;;;;5035430;28;20459;-64
2021/03/01 04:11:40;;;;;;;14.43;9.53;;;;;;;;;;5036807;28;20297;-64
2021/03/01 04:14:06;;;;;;;13.90;10.03;;;;;;;;;;5018406;28;20570;-64
2021/03/01 04:16:32;;;;;;;16.40;10.73;;;;;;;;;;5036255;28;20482;-64
2021/03/01 04:19:02;;;;;;;14.03;10.20;;;;;;;;;;5036290;28;20230;-64
2021/03/01 04:21:27;;;;;;;14.80;10.30;;;;;;;;;;5036019;28;20465;-64
2021/03/01 04:23:54;;;;;;;11.80;9.50;;;;;;;;;;5036329;28;20460;-63
2021/03/01 04:26:19;;;;;;;16.23;10.43;;;;;;;;;;5034921;28;20223;-63
2021/03/01 04:28:45;;;;;;;15.43;10.40;;;;;;;;;;5035290;28;20473;-63
2021/03/01 04:31:11;;;;;;;13.80;10.73;;;;;;;;;;5034865;28;20232;-63
2021/03/01 04:33:36;;;;;;;13.17;10.30;;;;;;;;;;5035123;28;20643;-62
2021/03/01 04:36:03;;;;;;;17.20;11.67;;;;;;;;;;5036231;28;20466;-63
2021/03/01 04:38:30;;;;;;;12.27;10.47;;;;;;;;;;5035498;28;20230;-63
2021/03/01 04:40:56;;;;;;;16.37;11.00;;;;;;;;;;5035166;28;20488;-63
2021/03/01 04:43:22;;;;;;;15.17;12.13;;;;;;;;;;5034946;28;20463;-63
2021/03/01 04:45:50;;;;;;;15.60;9.90;;;;;;;;;;5035191;28;20547;-63
2021/03/01 04:48:16;;;;;;;17.50;10.83;;;;;;;;;;5034769;28;20481;-63
2021/03/01 04:50:42;;;;;;;19.33;12.57;;;;;;;;;;5035287;28;20469;-63
2021/03/01 04:53:08;;;;;;;14.90;10.77;;;;;;;;;;5034694;28;20464;-63
2021/03/01 04:55:34;;;;;;;14.33;10.97;;;;;;;;;;5035022;28;20459;-63
2021/03/01 04:58:00;;;;;;;16.50;11.40;;;;;;;;;;5035028;28;20813;-63
2021/03/01 05:00:25;;;;;;;15.93;10.10;;;;;;;;;;5035448;28;20240;-63
2021/03/01 05:02:51;;;;;;;15.90;11.70;;;;;;;;;;5035391;28;20241;-63
2021/03/01 05:05:16;;;;;;;15.43;10.03;;;;;;;;;;5034088;28;20221;-63
2021/03/01 05:07:42;;;;;;;17.40;12.87;;;;;;;;;;5034648;28;20223;-63
2021/03/01 05:10:09;;;;;;;13.50;10.17;;;;;;;;;;5035101;28;20235;-63
2021/03/01 05:12:34;;;;;;;14.40;11.27;;;;;;;;;;5035272;28;20464;-63
2021/03/01 05:14:59;;;;;;;14.90;10.93;;;;;;;;;;5035139;28;20475;-64
2021/03/01 05:17:25;;;;;;;15.53;11.50;;;;;;;;;;5035114;28;20362;-63
2021/03/01 05:19:50;;;;;;;16.40;10.77;;;;;;;;;;5035037;28;20231;-62
2021/03/01 05:22:15;;;;;;;17.20;10.10;;;;;;;;;;5034664;28;20238;-64
2021/03/01 05:24:41;;;;;;;14.80;11.47;;;;;;;;;;5034911;28;20300;-63
2021/03/01 05:27:06;;;;;;;13.57;9.53;;;;;;;;;;5035142;28;20503;-63
2021/03/01 05:29:33;;;;;;;15.77;11.30;;;;;;;;;;5034005;28;20314;-63
2021/03/01 05:31:58;;;;;;;18.27;11.27;;;;;;;;;;5034799;28;20220;-63
2021/03/01 05:34:23;;;;;;;16.50;11.50;;;;;;;;;;5034494;28;20527;-63
2021/03/01 05:36:49;;;;;;;16.67;11.77;;;;;;;;;;5034924;28;20715;-63
2021/03/01 05:39:14;;;;;;;18.50;12.50;;;;;;;;;;5034441;28;20284;-63
2021/03/01 05:41:40;;;;;;;15.90;12.03;;;;;;;;;;5034662;28;20243;-63
2021/03/01 05:44:07;;;;;;;17.67;13.90;;;;;;;;;;5034904;28;20220;-63
2021/03/01 05:46:34;;;;;;;16.40;12.10;;;;;;;;;;5034716;28;20445;-63
2021/03/01 05:48:59;;;;;;;16.00;11.33;;;;;;;;;;5035325;28;20461;-63
2021/03/01 05:51:25;;;;;;;17.70;12.93;;;;;;;;;;5034357;28;20492;-63
2021/03/01 05:53:55;;;;;;;17.23;11.37;;;;;;;;;;5033760;28;20222;-63
2021/03/01 05:56:21;;;;;;;17.97;11.57;;;;;;;;;;5034697;28;20466;-63
2021/03/01 05:58:48;;;;;;;20.63;14.17;;;;;;;;;;5034777;28;20485;-63
2021/03/01 06:01:14;;;;;;;17.63;12.20;;;;;;;;;;5033753;28;20539;-63
2021/03/01 06:03:39;;;;;;;17.27;13.07;;;;;;;;;;5034331;28;20468;-64
2021/03/01 06:06:05;;;;;;;16.37;13.83;;;;;;;;;;5034591;28;20249;-64
2021/03/01 06:08:31;;;;;;;17.93;12.53;;;;;;;;;;5034075;28;20214;-63
2021/03/01 06:10:57;;;;;;;17.53;12.50;;;;;;;;;;5034408;28;20551;-63
2021/03/01 06:13:23;;;;;;;22.27;14.00;;;;;;;;;;5034091;28;20480;-63
2021/03/01 06:15:49;;;;;;;19.23;12.00;;;;;;;;;;5034673;28;20450;-64
2021/03/01 06:18:15;;;;;;;21.27;12.77;;;;;;;;;;5033119;28;20791;-62
2021/03/01 06:20:41;;;;;;;20.37;12.90;;;;;;;;;;5034379;28;20222;-63
2021/03/01 06:23:07;;;;;;;18.30;12.83;;;;;;;;;;5034554;28;20227;-66
2021/03/01 06:25:32;;;;;;;26.93;13.90;;;;;;;;;;5034262;28;20592;-62
2021/03/01 06:28:03;;;;;;;19.63;11.07;;;;;;;;;;5024388;28;20285;-64
2021/03/01 06:30:31;;;;;;;23.13;12.87;;;;;;;;;;5014358;28;20603;-63
2021/03/01 06:33:10;;;;;;;18.60;11.80;;;;;;;;;;5033192;28;20473;-63
2021/03/01 06:35:46;;;;;;;17.23;12.93;;;;;;;;;;5027722;28;20444;-64
2021/03/01 06:38:23;;;;;;;21.60;11.27;;;;;;;;;;5013738;28;20560;-62
2021/03/01 06:41:09;;;;;;;17.27;12.40;;;;;;;;;;5014221;28;20457;-63
2021/03/01 06:43:34;;;;;;;18.20;12.40;;;;;;;;;;5018819;28;20469;-63
2021/03/01 06:46:07;;;;;;;18.87;11.23;;;;;;;;;;5038241;28;20479;-64
2021/03/01 06:48:32;;;;;;;19.80;13.97;;;;;;;;;;5036693;28;20240;-64
2021/03/01 06:50:57;;;;;;;24.27;14.80;;;;;;;;;;5036652;28;20445;-64
2021/03/01 06:53:23;;;;;;;21.13;12.03;;;;;;;;;;5037199;28;20769;-64
2021/03/01 06:56:10;;;;;;;26.60;13.83;;;;;;;;;;5036796;28;20327;-65
2021/03/01 06:58:40;;;;;;;19.70;13.33;;;;;;;;;;5038064;28;20267;-63
2021/03/01 07:01:17;;;;;;;20.13;12.70;;;;;;;;;;5033117;28;20468;-64
2021/03/01 07:03:47;;;;;;;16.67;11.73;;;;;;;;;;5018014;28;20471;-63
2021/03/01 07:06:13;;;;;;;20.97;13.73;;;;;;;;;;5017773;28;20460;-63
2021/03/01 07:08:39;;;;;;;16.90;11.87;;;;;;;;;;5017418;28;20466;-65
2021/03/01 07:11:19;;;;;;;18.93;12.77;;;;;;;;;;5016911;28;20552;-65
2021/03/01 07:13:45;;;;;;;22.00;16.30;;;;;;;;;;5017414;28;20562;-65
2021/03/01 07:16:10;;;;;;;23.83;15.20;;;;;;;;;;5018094;28;20538;-64
2021/03/01 07:18:36;;;;;;;28.30;16.17;;;;;;;;;;5017373;28;20233;-65
2021/03/01 07:21:02;;;;;;;22.47;13.83;;;;;;;;;;5016543;28;20223;-64
2021/03/01 07:23:27;;;;;;;16.00;11.77;;;;;;;;;;5016083;28;20953;-66
2021/03/01 07:25:53;;;;;;;18.70;12.67;;;;;;;;;;5016577;28;20218;-65
2021/03/01 07:28:18;;;;;;;17.40;12.77;;;;;;;;;;5031374;28;20215;-65
2021/03/01 07:30:45;;;;;;;17.67;14.40;;;;;;;;;;5036694;28;20223;-65
2021/03/01 07:33:14;;;;;;;24.53;12.93;;;;;;;;;;5037592;28;20225;-65
2021/03/01 07:35:43;;;;;;;17.97;12.50;;;;;;;;;;5027989;28;20485;-64
2021/03/01 07:38:09;;;;;;;18.80;11.93;;;;;;;;;;5017552;28;20790;-66
2021/03/01 07:40:35;;;;;;;17.87;11.90;;;;;;;;;;5016894;28;20471;-63
2021/03/01 07:43:02;;;;;;;17.73;11.10;;;;;;;;;;5017503;28;20668;-64
2021/03/01 07:45:28;;;;;;;24.00;12.83;;;;;;;;;;5016964;28;20606;-64
2021/03/01 07:47:53;;;;;;;24.80;12.80;;;;;;;;;;5016683;28;20492;-63
2021/03/01 07:50:40;;;;;;;19.43;9.97;;;;;;;;;;5017654;28;20467;-64
2021/03/01 07:53:05;;;;;;;20.50;12.50;;;;;;;;;;5014871;28;20312;-64
2021/03/01 07:55:30;;;;;;;20.10;14.47;;;;;;;;;;5016940;28;20471;-65
2021/03/01 07:58:04;;;;;;;16.40;12.70;;;;;;;;;;5017413;28;20524;-64
2021/03/01 08:00:35;;;;;;;18.07;11.20;;;;;;;;;;5016982;28;20286;-64
2021/03/01 08:03:20;;;;;;;22.53;11.90;;;;;;;;;;5016485;28;20842;-64
2021/03/01 08:05:51;;;;;;;27.10;20.33;;;;;;;;;;5024222;28;20472;-65
2021/03/01 08:08:46;;;;;;;37.93;24.73;;;;;;;;;;5035459;28;20460;-63
2021/03/01 08:11:12;;;;;;;29.90;22.30;;;;;;;;;;5035123;28;20452;-65
2021/03/01 08:13:37;;;;;;;25.43;18.63;;;;;;;;;;5034465;28;20657;-65
2021/03/01 08:16:22;;;;;;;25.30;17.53;;;;;;;;;;5035283;28;20594;-65
2021/03/01 08:18:51;;;;;;;26.27;17.37;;;;;;;;;;5034282;28;20329;-65
2021/03/01 08:21:16;;;;;;;22.83;16.13;;;;;;;;;;5031101;28;20452;-65
2021/03/01 08:23:42;;;;;;;26.27;22.00;;;;;;;;;;5035201;28;21012;-65
2021/03/01 08:26:07;;;;;;;30.87;21.07;;;;;;;;;;5035013;28;20220;-65
2021/03/01 08:28:41;;;;;;;37.07;25.27;;;;;;;;;;5036606;28;20226;-64
2021/03/01 08:31:06;;;;;;;21.93;17.33;;;;;;;;;;5033859;28;20226;-65
2021/03/01 08:33:32;;;;;;;20.93;15.17;;;;;;;;;;5036175;28;20786;-65
2021/03/01 08:36:00;;;;;;;24.23;17.67;;;;;;;;;;5036305;28;20245;-65
2021/03/01 08:38:47;;;;;;;23.80;16.10;;;;;;;;;;5036362;28;20222;-64
2021/03/01 08:41:14;;;;;;;25.30;17.97;;;;;;;;;;5035613;28;20458;-64
2021/03/01 08:43:41;;;;;;;25.97;18.83;;;;;;;;;;5037037;28;20463;-65
2021/03/01 08:46:16;;;;;;;25.97;19.00;;;;;;;;;;5035620;28;20488;-65
2021/03/01 08:48:59;;;;;;;26.73;18.40;;;;;;;;;;5035846;28;20488;-65
2021/03/01 08:51:25;;;;;;;23.77;17.90;;;;;;;;;;5035415;28;20453;-65
2021/03/01 08:53:51;;;;;;;22.40;17.40;;;;;;;;;;5035954;28;21005;-64
2021/03/01 08:56:18;;;;;;;19.20;15.00;;;;;;;;;;5035160;28;20226;-64
2021/03/01 08:58:43;;;;;;;25.50;19.23;;;;;;;;;;5035189;28;20470;-64
2021/03/01 09:01:09;;;;;;;27.13;20.07;;;;;;;;;;5035273;28;20474;-64
2021/03/01 09:03:44;;;;;;;27.73;19.17;;;;;;;;;;5035670;28;20310;-64
2021/03/01 09:06:19;;;;;;;35.37;24.60;;;;;;;;;;5034156;28;20246;-64
2021/03/01 09:08:53;;;;;;;22.57;17.60;;;;;;;;;;5035787;28;20764;-63
2021/03/01 09:11:21;;;;;;;19.10;15.83;;;;;;;;;;5034702;28;20502;-65
2021/03/01 09:13:48;;;;;;;19.00;14.80;;;;;;;;;;5034858;28;20483;-66
2021/03/01 09:16:15;;;;;;;20.60;16.10;;;;;;;;;;5033977;28;20552;-64
2021/03/01 09:18:42;;;;;;;26.77;16.43;;;;;;;;;;5035369;28;20780;-64
2021/03/01 09:21:09;;;;;;;22.90;16.67;;;;;;;;;;5035100;28;20564;-64
2021/03/01 09:23:38;;;;;;;20.50;16.07;;;;;;;;;;5035343;28;20541;-64
2021/03/01 09:26:05;;;;;;;21.27;14.10;;;;;;;;;;5035158;28;20987;-64
2021/03/01 09:28:35;;;;;;;22.80;16.13;;;;;;;;;;5034970;28;20458;-64
2021/03/01 09:31:08;;;;;;;22.87;15.17;;;;;;;;;;5034964;28;20466;-65
2021/03/01 09:33:34;;;;;;;21.57;13.53;;;;;;;;;;5034831;28;20441;-64
2021/03/01 09:35:59;;;;;;;23.30;15.43;;;;;;;;;;5023313;28;20777;-64
2021/03/01 09:38:25;;;;;;;20.80;15.50;;;;;;;;;;5014625;28;20452;-64
2021/03/01 09:40:58;;;;;;;22.30;15.30;;;;;;;;;;5013463;28;20220;-65
2021/03/01 09:43:23;;;;;;;20.73;15.13;;;;;;;;;;5013826;28;20415;-65
2021/03/01 09:45:49;;;;;;;19.73;14.40;;;;;;;;;;5012553;28;20445;-64
2021/03/01 09:48:14;;;;;;;22.53;15.37;;;;;;;;;;5014578;28;20225;-63
2021/03/01 09:50:40;;;;;;;20.13;16.47;;;;;;;;;;5013558;28;20217;-64
2021/03/01 09:53:05;;;;;;;27.57;21.90;;;;;;;;;;5013626;28;20218;-65
2021/03/01 09:55:30;;;;;;;24.87;19.27;;;;;;;;;;5030328;28;20217;-65
2021/03/01 09:57:56;;;;;;;26.70;20.60;;;;;;;;;;5028330;28;20213;-64
2021/03/01 10:00:29;;;;;;;24.43;19.23;;;;;;;;;;5023586;28;20224;-64
2021/03/01 10:02:58;;;;;;;21.90;18.83;;;;;;;;;;5026704;28;20772;-65
2021/03/01 10:05:24;;;;;;;24.57;19.30;;;;;;;;;;5017540;28;20452;-64
2021/03/01 10:08:00;;;;;;;26.20;22.33;;;;;;;;;;5035381;28;20525;-64
2021/03/01 10:10:33;;;;;;;25.07;17.40;;;;;;;;;;5025070;28;20459;-64
2021/03/01 10:12:59;;;;;;;24.43;18.20;;;;;;;;;;5029621;28;20473;-64
2021/03/01 10:15:25;;;;;;;23.70;18.43;;;;;;;;;;5008749;28;20482;-64
2021/03/01 10:18:06;;;;;;;32.13;23.90;;;;;;;;;;5012265;28;20454;-64
2021/03/01 10:20:33;;;;;;;30.53;23.87;;;;;;;;;;4994512;28;20261;-64
2021/03/01 10:23:03;;;;;;;29.90;23.70;;;;;;;;;;5007452;28;20865;-64
2021/03/01 10:25:48;;;;;;;27.73;19.80;;;;;;;;;;5014264;28;20466;-64
2021/03/01 10:28:25;;;;;;;29.10;22.77;;;;;;;;;;5014206;28;20486;-65
2021/03/01 10:31:05;;;;;;;25.70;20.00;;;;;;;;;;5040142;28;20541;-64
2021/03/01 10:33:31;;;;;;;26.33;17.87;;;;;;;;;;5014121;28;20465;-63
2021/03/01 10:36:07;;;;;;;20.33;17.80;;;;;;;;;;5021876;28;20453;-63
2021/03/01 10:38:48;;;;;;;22.87;18.60;;;;;;;;;;5032829;28;20460;-64
2021/03/01 10:41:18;;;;;;;26.03;20.50;;;;;;;;;;5033610;28;20461;-64
2021/03/01 10:44:10;;;;;;;23.70;20.60;;;;;;;;;;5032781;28;20457;-64
2021/03/01 10:46:47;;;;;;;27.67;19.70;;;;;;;;;;5036811;28;20502;-63
2021/03/01 10:49:14;;;;;;;22.93;18.93;;;;;;;;;;5030793;28;20530;-63
2021/03/01 10:51:39;;;;;;;23.07;18.33;;;;;;;;;;5022354;28;20548;-64
2021/03/01 10:54:04;;;;;;;20.30;18.20;;;;;;;;;;5031353;28;20559;-64
2021/03/01 10:56:30;;;;;;;23.93;18.20;;;;;;;;;;5023301;28;20221;-64
2021/03/01 10:58:55;;;;;;;25.13;16.73;;;;;;;;;;5021531;28;20316;-64
2021/03/01 11:01:20;;;;;;;21.80;17.17;;;;;;;;;;5033335;28;20228;-64
2021/03/01 11:03:46;;;;;;;25.63;17.50;;;;;;;;;;5030339;28;20296;-63
2021/03/01 11:06:11;;;;;;;23.20;18.10;;;;;;;;;;5033941;28;20546;-63
2021/03/01 11:08:36;;;;;;;25.53;19.07;;;;;;;;;;5033465;28;20218;-64
2021/03/01 11:11:01;;;;;;;20.00;16.87;;;;;;;;;;5033488;28;20308;-63
2021/03/01 11:13:27;;;;;;;21.93;17.20;;;;;;;;;;5036334;28;20235;-64
2021/03/01 11:15:52;;;;;;;22.70;17.10;;;;;;;;;;5053481;28;20228;-64
2021/03/01 11:18:17;;;;;;;19.13;17.07;;;;;;;;;;5046903;28;20301;-64
2021/03/01 11:20:42;;;;;;;22.90;16.47;;;;;;;;;;5053165;28;20521;-64
2021/03/01 11:23:08;;;;;;;21.57;18.67;;;;;;;;;;5043322;28;20222;-64
2021/03/01 11:25:34;;;;;;;20.80;17.10;;;;;;;;;;5040493;28;20652;-64
2021/03/01 11:28:00;;;;;;;19.07;16.63;;;;;;;;;;5046068;28;20229;-63
2021/03/01 11:30:25;;;;;;;17.87;15.97;;;;;;;;;;5036369;28;20456;-64
2021/03/01 11:32:51;;;;;;;17.73;14.60;;;;;;;;;;5051133;28;20217;-64
2021/03/01 11:35:16;;;;;;;18.97;15.43;;;;;;;;;;5052622;28;20213;-64
2021/03/01 11:37:41;;;;;;;20.00;14.80;;;;;;;;;;5052860;28;20217;-64
2021/03/01 11:40:07;;;;;;;19.43;14.83;;;;;;;;;;5049720;28;20632;-65
2021/03/01 11:42:32;;;;;;;16.50;13.73;;;;;;;;;;5042144;28;20453;-64
2021/03/01 11:44:58;;;;;;;18.63;14.50;;;;;;;;;;5040378;28;20467;-64
2021/03/01 11:47:23;;;;;;;20.47;15.73;;;;;;;;;;5051647;28;20209;-64
2021/03/01 11:49:49;;;;;;;18.93;14.13;;;;;;;;;;5052058;28;20298;-64
2021/03/01 11:52:14;;;;;;;21.23;16.10;;;;;;;;;;5047517;28;20221;-64
2021/03/01 11:54:39;;;;;;;13.87;12.40;;;;;;;;;;5042963;28;20224;-64
2021/03/01 11:57:04;;;;;;;19.47;13.20;;;;;;;;;;5041186;28;20338;-64
2021/03/01 11:59:30;;;;;;;14.50;12.40;;;;;;;;;;5033708;28;20226;-65
2021/03/01 12:01:55;;;;;;;15.67;11.77;;;;;;;;;;5036667;28;20383;-65
2021/03/01 12:04:20;;;;;;;14.83;12.43;;;;;;;;;;5036823;28;20638;-65
2021/03/01 12:06:47;;;;;;;18.80;13.40;;;;;;;;;;5037207;28;20366;-65
2021/03/01 12:09:12;;;;;;;14.27;12.67;;;;;;;;;;5037080;28;20224;-64
2021/03/01 12:11:38;;;;;;;17.13;12.70;;;;;;;;;;5041638;28;20502;-64
2021/03/01 12:14:03;;;;;;;13.97;11.13;;;;;;;;;;5046355;28;20229;-64
2021/03/01 12:16:28;;;;;;;15.37;11.20;;;;;;;;;;5040376;28;20225;-65
2021/03/01 12:18:53;;;;;;;17.33;10.90;;;;;;;;;;5056289;28;20313;-65
2021/03/01 12:21:19;;;;;;;13.60;10.90;;;;;;;;;;5056017;28;20660;-64
2021/03/01 12:23:44;;;;;;;15.17;11.77;;;;;;;;;;5055093;28;20297;-65
2021/03/01 12:26:09;;;;;;;15.83;11.23;;;;;;;;;;5055547;28;20216;-64
2021/03/01 12:28:35;;;;;;;15.30;12.07;;;;;;;;;;5055508;28;20617;-64
2021/03/01 12:31:00;;;;;;;18.77;12.13;;;;;;;;;;5056134;28;20222;-65
2021/03/01 12:33:25;;;;;;;13.40;10.87;;;;;;;;;;5055987;28;20225;-64
2021/03/01 12:35:50;;;;;;;16.17;11.37;;;;;;;;;;5045150;28;20279;-65
2021/03/01 12:38:16;;;;;;;14.30;10.27;;;;;;;;;;5049859;28;20244;-65
2021/03/01 12:40:41;;;;;;;14.17;11.10;;;;;;;;;;5046447;28;20232;-64
2021/03/01 12:43:06;;;;;;;12.20;10.57;;;;;;;;;;5040536;28;20222;-64
2021/03/01 12:45:32;;;;;;;15.90;11.40;;;;;;;;;;5052205;28;20213;-63
2021/03/01 12:47:58;;;;;;;14.40;11.20;;;;;;;;;;5053123;28;20242;-64
2021/03/01 12:50:23;;;;;;;13.50;10.80;;;;;;;;;;5035027;28;20496;-65
2021/03/01 12:52:49;;;;;;;12.70;11.40;;;;;;;;;;5035309;28;20236;-63
2021/03/01 12:55:14;;;;;;;14.20;10.93;;;;;;;;;;5035438;28;20308;-64
2021/03/01 12:57:39;;;;;;;15.77;10.90;;;;;;;;;;5046603;28;20230;-65
2021/03/01 13:00:08;;;;;;;16.03;11.80;;;;;;;;;;5055158;28;20229;-65
2021/03/01 13:02:33;;;;;;;13.80;12.30;;;;;;;;;;5054838;28;20611;-63
2021/03/01 13:04:58;;;;;;;14.40;11.03;;;;;;;;;;5054222;28;20469;-64
2021/03/01 13:07:24;;;;;;;13.33;11.73;;;;;;;;;;5054777;28;20218;-64
2021/03/01 13:09:49;;;;;;;19.97;14.47;;;;;;;;;;5054971;28;20301;-64
2021/03/01 13:12:14;;;;;;;18.80;13.73;;;;;;;;;;5055158;28;20639;-64
2021/03/01 13:14:39;;;;;;;17.80;16.00;;;;;;;;;;5053381;28;20329;-64
2021/03/01 13:17:05;;;;;;;16.90;11.60;;;;;;;;;;5054892;28;20215;-65
2021/03/01 13:19:30;;;;;;;18.77;14.83;;;;;;;;;;5053639;28;20322;-65
2021/03/01 13:21:56;;;;;;;14.87;13.00;;;;;;;;;;5054821;28;20230;-64
2021/03/01 13:24:21;;;;;;;16.77;13.90;;;;;;;;;;5054788;28;20325;-64
2021/03/01 13:26:46;;;;;;;16.93;14.53;;;;;;;;;;5053479;28;20480;-65
2021/03/01 13:29:12;;;;;;;18.30;14.20;;;;;;;;;;5043592;28;20293;-65
2021/03/01 13:31:37;;;;;;;17.37;14.37;;;;;;;;;;5042028;28;20557;-64
2021/03/01 13:34:02;;;;;;;17.50;14.73;;;;;;;;;;5054212;28;20304;-64
2021/03/01 13:36:27;;;;;;;22.57;14.70;;;;;;;;;;5041110;28;20232;-63
2021/03/01 13:38:53;;;;;;;21.33;14.63;;;;;;;;;;5042593;28;20219;-65
2021/03/01 13:41:18;;;;;;;20.00;15.37;;;;;;;;;;5046098;28;20240;-64
2021/03/01 13:43:43;;;;;;;16.43;14.73;;;;;;;;;;5051692;28;20680;-64
2021/03/01 13:46:09;;;;;;;18.27;13.70;;;;;;;;;;5051493;28;20242;-64
2021/03/01 13:48:34;;;;;;;18.63;13.60;;;;;;;;;;5044389;28;20222;-64
2021/03/01 13:50:59;;;;;;;19.90;14.70;;;;;;;;;;5033798;28;20314;-65
2021/03/01 13:53:25;;;;;;;19.57;15.80;;;;;;;;;;5040784;28;20548;-64
2021/03/01 13:55:50;;;;;;;20.80;14.40;;;;;;;;;;5053906;28;20343;-65
2021/03/01 13:58:15;;;;;;;18.10;15.17;;;;;;;;;;5054291;28;20553;-65
2021/03/01 14:00:40;;;;;;;17.37;13.93;;;;;;;;;;5052254;28;20232;-64
2021/03/01 14:03:06;;;;;;;16.57;13.33;;;;;;;;;;5034168;28;20250;-64
2021/03/01 14:05:31;;;;;;;20.33;15.40;;;;;;;;;;5033853;28;20216;-65
2021/03/01 14:07:57;;;;;;;18.27;15.40;;;;;;;;;;5034226;28;20541;-64
2021/03/01 14:10:22;;;;;;;22.47;16.57;;;;;;;;;;5039761;28;20223;-64
2021/03/01 14:12:48;;;;;;;19.53;14.27;;;;;;;;;;5049456;28;20643;-64
2021/03/01 14:15:13;;;;;;;16.87;15.03;;;;;;;;;;5041296;28;20235;-64
2021/03/01 14:17:38;;;;;;;18.07;14.30;;;;;;;;;;5034118;28;20395;-62
2021/03/01 14:20:05;;;;;;;15.20;12.90;;;;;;;;;;5038182;28;20244;-61
2021/03/01 14:22:30;;;;;;;16.60;12.60;;;;;;;;;;5033991;28;20229;-62
2021/03/01 14:24:57;;;;;;;17.77;13.70;;;;;;;;;;5034052;28;20488;-61